sensor_id;sensor_type;location;lat;lon;timestamp;P1;durP1;ratioP1;P2;durP2;ratioP2
73550;SDS011;61816;53.582;10.096;2022-08-21T00:00:25;19.10;;;8.15;;
73550;SDS011;61816;53.582;10.096;2022-08-21T00:02:57;18.17;;;7.40;;
73550;SDS011;61816;53.582;10.096;2022-08-21T00:05:28;22.45;;;8.55;;
73550;SDS011;61816;53.582;10.096;2022-08-21T00:07:54;25.27;;;8.15;;
73550;SDS011;61816;53.582;10.096;2022-08-21T00:10:20;20.35;;;9.18;;
73550;SDS011;61816;53.582;10.096;2022-08-21T00:12:46;15.20;;;7.88;;
73550;SDS011;61816;53.582;10.096;2022-08-21T00:15:13;19.33;;;8.18;;
73550;SDS011;61816;53.582;10.096;2022-08-21T00:17:41;21.27;;;8.05;;
73550;SDS011;61816;53.582;10.096;2022-08-21T00:20:07;16.67;;;7.75;;
73550;SDS011;61816;53.582;10.096;2022-08-21T00:22:34;24.33;;;8.93;;
73550;SDS011;61816;53.582;10.096;2022-08-21T00:25:00;17.52;;;8.27;;
73550;SDS011;61816;53.582;10.096;2022-08-21T00:27:27;21.98;;;9.27;;
73550;SDS011;61816;53.582;10.096;2022-08-21T00:29:52;23.05;;;8.85;;
73550;SDS011;61816;53.582;10.096;2022-08-21T00:32:22;16.58;;;7.78;;
73550;SDS011;61816;53.582;10.096;2022-08-21T00:34:50;22.13;;;8.80;;
73550;SDS011;61816;53.582;10.096;2022-08-21T00:37:16;15.10;;;8.50;;
73550;SDS011;61816;53.582;10.096;2022-08-21T00:39:41;19.33;;;7.38;;
73550;SDS011;61816;53.582;10.096;2022-08-21T00:42:07;21.00;;;8.40;;
73550;SDS011;61816;53.582;10.096;2022-08-21T00:44:32;16.80;;;7.32;;
73550;SDS011;61816;53.582;10.096;2022-08-21T00:46:57;23.48;;;8.20;;
73550;SDS011;61816;53.582;10.096;2022-08-21T00:49:23;16.92;;;7.97;;
73550;SDS011;61816;53.582;10.096;2022-08-21T00:51:50;18.35;;;7.65;;
73550;SDS011;61816;53.582;10.096;2022-08-21T00:54:19;21.17;;;7.95;;
73550;SDS011;61816;53.582;10.096;2022-08-21T00:56:48;16.90;;;7.30;;
73550;SDS011;61816;53.582;10.096;2022-08-21T00:59:18;13.45;;;6.82;;
73550;SDS011;61816;53.582;10.096;2022-08-21T01:01:45;18.40;;;7.03;;
73550;SDS011;61816;53.582;10.096;2022-08-21T01:04:11;15.82;;;7.80;;
73550;SDS011;61816;53.582;10.096;2022-08-21T01:06:37;15.27;;;7.10;;
73550;SDS011;61816;53.582;10.096;2022-08-21T01:09:03;13.88;;;6.93;;
73550;SDS011;61816;53.582;10.096;2022-08-21T01:11:28;19.15;;;7.78;;
73550;SDS011;61816;53.582;10.096;2022-08-21T01:13:54;14.50;;;7.05;;
73550;SDS011;61816;53.582;10.096;2022-08-21T01:16:20;16.67;;;7.97;;
73550;SDS011;61816;53.582;10.096;2022-08-21T01:18:47;17.90;;;7.28;;
73550;SDS011;61816;53.582;10.096;2022-08-21T01:21:16;20.73;;;7.88;;
73550;SDS011;61816;53.582;10.096;2022-08-21T01:23:44;21.15;;;6.93;;
73550;SDS011;61816;53.582;10.096;2022-08-21T01:26:13;19.63;;;7.47;;
73550;SDS011;61816;53.582;10.096;2022-08-21T01:28:46;22.33;;;7.07;;
73550;SDS011;61816;53.582;10.096;2022-08-21T01:31:21;20.75;;;7.32;;
73550;SDS011;61816;53.582;10.096;2022-08-21T01:33:48;19.65;;;7.05;;
73550;SDS011;61816;53.582;10.096;2022-08-21T01:36:13;18.83;;;7.25;;
73550;SDS011;61816;53.582;10.096;2022-08-21T01:38:39;19.58;;;7.03;;
73550;SDS011;61816;53.582;10.096;2022-08-21T01:41:04;21.60;;;7.47;;
73550;SDS011;61816;53.582;10.096;2022-08-21T01:43:30;14.80;;;6.50;;
73550;SDS011;61816;53.582;10.096;2022-08-21T01:45:55;18.23;;;7.32;;
73550;SDS011;61816;53.582;10.096;2022-08-21T01:48:20;17.98;;;7.25;;
73550;SDS011;61816;53.582;10.096;2022-08-21T01:50:46;17.10;;;7.22;;
73550;SDS011;61816;53.582;10.096;2022-08-21T01:53:11;15.18;;;6.72;;
73550;SDS011;61816;53.582;10.096;2022-08-21T01:55:36;14.57;;;7.65;;
73550;SDS011;61816;53.582;10.096;2022-08-21T01:58:02;15.32;;;7.45;;
73550;SDS011;61816;53.582;10.096;2022-08-21T02:00:27;20.08;;;7.35;;
73550;SDS011;61816;53.582;10.096;2022-08-21T02:02:53;14.45;;;6.97;;
73550;SDS011;61816;53.582;10.096;2022-08-21T02:05:18;14.23;;;6.75;;
73550;SDS011;61816;53.582;10.096;2022-08-21T02:07:47;14.15;;;6.75;;
73550;SDS011;61816;53.582;10.096;2022-08-21T02:10:16;13.32;;;7.03;;
73550;SDS011;61816;53.582;10.096;2022-08-21T02:12:44;14.82;;;6.90;;
73550;SDS011;61816;53.582;10.096;2022-08-21T02:15:10;15.25;;;6.65;;
73550;SDS011;61816;53.582;10.096;2022-08-21T02:17:40;22.23;;;7.50;;
73550;SDS011;61816;53.582;10.096;2022-08-21T02:20:08;15.90;;;7.28;;
73550;SDS011;61816;53.582;10.096;2022-08-21T02:22:36;18.10;;;7.80;;
73550;SDS011;61816;53.582;10.096;2022-08-21T02:25:04;22.73;;;7.63;;
73550;SDS011;61816;53.582;10.096;2022-08-21T02:27:44;14.73;;;6.30;;
73550;SDS011;61816;53.582;10.096;2022-08-21T02:30:28;17.00;;;7.28;;
73550;SDS011;61816;53.582;10.096;2022-08-21T02:32:57;14.73;;;7.72;;
73550;SDS011;61816;53.582;10.096;2022-08-21T02:35:24;18.35;;;6.93;;
73550;SDS011;61816;53.582;10.096;2022-08-21T02:40:23;14.23;;;6.35;;
73550;SDS011;61816;53.582;10.096;2022-08-21T02:42:51;12.48;;;7.45;;
73550;SDS011;61816;53.582;10.096;2022-08-21T02:45:17;20.95;;;6.40;;
73550;SDS011;61816;53.582;10.096;2022-08-21T02:47:47;17.52;;;6.47;;
73550;SDS011;61816;53.582;10.096;2022-08-21T02:50:16;18.55;;;7.78;;
73550;SDS011;61816;53.582;10.096;2022-08-21T02:52:45;13.95;;;6.18;;
73550;SDS011;61816;53.582;10.096;2022-08-21T02:55:11;20.17;;;6.45;;
73550;SDS011;61816;53.582;10.096;2022-08-21T02:57:36;17.10;;;6.35;;
73550;SDS011;61816;53.582;10.096;2022-08-21T03:00:03;15.20;;;6.47;;
73550;SDS011;61816;53.582;10.096;2022-08-21T03:02:30;19.83;;;6.05;;
73550;SDS011;61816;53.582;10.096;2022-08-21T03:04:56;12.40;;;6.35;;
73550;SDS011;61816;53.582;10.096;2022-08-21T03:07:22;13.18;;;5.28;;
73550;SDS011;61816;53.582;10.096;2022-08-21T03:09:47;11.25;;;5.60;;
73550;SDS011;61816;53.582;10.096;2022-08-21T03:12:13;14.05;;;5.60;;
73550;SDS011;61816;53.582;10.096;2022-08-21T03:14:38;14.90;;;6.63;;
73550;SDS011;61816;53.582;10.096;2022-08-21T03:17:04;15.07;;;6.70;;
73550;SDS011;61816;53.582;10.096;2022-08-21T03:19:30;16.85;;;6.65;;
73550;SDS011;61816;53.582;10.096;2022-08-21T03:21:55;16.85;;;6.80;;
73550;SDS011;61816;53.582;10.096;2022-08-21T03:24:20;13.65;;;6.15;;
73550;SDS011;61816;53.582;10.096;2022-08-21T03:26:46;13.55;;;5.78;;
73550;SDS011;61816;53.582;10.096;2022-08-21T03:29:11;14.95;;;6.55;;
73550;SDS011;61816;53.582;10.096;2022-08-21T03:31:37;14.20;;;6.03;;
73550;SDS011;61816;53.582;10.096;2022-08-21T03:34:04;12.73;;;6.05;;
73550;SDS011;61816;53.582;10.096;2022-08-21T03:36:30;13.30;;;6.00;;
73550;SDS011;61816;53.582;10.096;2022-08-21T03:38:55;13.05;;;6.05;;
73550;SDS011;61816;53.582;10.096;2022-08-21T03:41:21;18.08;;;6.20;;
73550;SDS011;61816;53.582;10.096;2022-08-21T03:43:46;16.67;;;6.35;;
73550;SDS011;61816;53.582;10.096;2022-08-21T03:46:12;12.65;;;5.88;;
73550;SDS011;61816;53.582;10.096;2022-08-21T03:48:37;16.35;;;5.53;;
73550;SDS011;61816;53.582;10.096;2022-08-21T03:51:03;16.33;;;6.45;;
73550;SDS011;61816;53.582;10.096;2022-08-21T03:53:28;18.20;;;6.43;;
73550;SDS011;61816;53.582;10.096;2022-08-21T03:55:55;15.23;;;6.22;;
73550;SDS011;61816;53.582;10.096;2022-08-21T03:58:22;18.73;;;6.93;;
73550;SDS011;61816;53.582;10.096;2022-08-21T04:00:51;14.25;;;6.88;;
73550;SDS011;61816;53.582;10.096;2022-08-21T04:03:19;17.25;;;7.00;;
73550;SDS011;61816;53.582;10.096;2022-08-21T04:05:45;14.40;;;6.03;;
73550;SDS011;61816;53.582;10.096;2022-08-21T04:08:11;16.50;;;6.55;;
73550;SDS011;61816;53.582;10.096;2022-08-21T04:10:37;14.68;;;6.57;;
73550;SDS011;61816;53.582;10.096;2022-08-21T04:13:04;13.07;;;6.55;;
73550;SDS011;61816;53.582;10.096;2022-08-21T04:15:30;16.63;;;6.18;;
73550;SDS011;61816;53.582;10.096;2022-08-21T04:17:56;13.13;;;5.78;;
73550;SDS011;61816;53.582;10.096;2022-08-21T04:20:21;18.10;;;5.53;;
73550;SDS011;61816;53.582;10.096;2022-08-21T04:22:47;20.08;;;5.60;;
73550;SDS011;61816;53.582;10.096;2022-08-21T04:25:15;16.77;;;5.90;;
73550;SDS011;61816;53.582;10.096;2022-08-21T04:27:41;14.70;;;5.80;;
73550;SDS011;61816;53.582;10.096;2022-08-21T04:30:10;16.77;;;6.60;;
73550;SDS011;61816;53.582;10.096;2022-08-21T04:32:37;18.25;;;7.07;;
73550;SDS011;61816;53.582;10.096;2022-08-21T04:35:05;14.43;;;6.38;;
73550;SDS011;61816;53.582;10.096;2022-08-21T04:37:34;15.35;;;5.32;;
73550;SDS011;61816;53.582;10.096;2022-08-21T04:40:00;13.82;;;5.55;;
73550;SDS011;61816;53.582;10.096;2022-08-21T04:42:25;14.95;;;6.15;;
73550;SDS011;61816;53.582;10.096;2022-08-21T04:44:52;13.38;;;5.60;;
73550;SDS011;61816;53.582;10.096;2022-08-21T04:47:18;14.95;;;5.50;;
73550;SDS011;61816;53.582;10.096;2022-08-21T04:49:44;15.73;;;5.38;;
73550;SDS011;61816;53.582;10.096;2022-08-21T04:52:10;10.18;;;5.00;;
73550;SDS011;61816;53.582;10.096;2022-08-21T04:54:38;12.80;;;5.70;;
73550;SDS011;61816;53.582;10.096;2022-08-21T04:57:06;11.02;;;5.50;;
73550;SDS011;61816;53.582;10.096;2022-08-21T04:59:41;13.45;;;5.75;;
73550;SDS011;61816;53.582;10.096;2022-08-21T05:02:10;16.63;;;6.00;;
73550;SDS011;61816;53.582;10.096;2022-08-21T05:04:36;17.80;;;5.53;;
73550;SDS011;61816;53.582;10.096;2022-08-21T05:07:09;10.68;;;5.68;;
73550;SDS011;61816;53.582;10.096;2022-08-21T05:09:37;10.88;;;4.90;;
73550;SDS011;61816;53.582;10.096;2022-08-21T05:12:04;18.30;;;5.15;;
73550;SDS011;61816;53.582;10.096;2022-08-21T05:14:30;11.85;;;5.05;;
73550;SDS011;61816;53.582;10.096;2022-08-21T05:16:55;12.93;;;5.55;;
73550;SDS011;61816;53.582;10.096;2022-08-21T05:19:21;16.52;;;5.07;;
73550;SDS011;61816;53.582;10.096;2022-08-21T05:21:48;17.77;;;5.00;;
73550;SDS011;61816;53.582;10.096;2022-08-21T05:24:14;9.90;;;5.15;;
73550;SDS011;61816;53.582;10.096;2022-08-21T05:26:39;13.48;;;5.10;;
73550;SDS011;61816;53.582;10.096;2022-08-21T05:29:05;13.40;;;4.70;;
73550;SDS011;61816;53.582;10.096;2022-08-21T05:31:31;14.10;;;4.90;;
73550;SDS011;61816;53.582;10.096;2022-08-21T05:33:57;12.05;;;4.88;;
73550;SDS011;61816;53.582;10.096;2022-08-21T05:36:23;19.17;;;4.10;;
73550;SDS011;61816;53.582;10.096;2022-08-21T05:38:49;12.60;;;5.07;;
73550;SDS011;61816;53.582;10.096;2022-08-21T05:41:15;14.32;;;4.55;;
73550;SDS011;61816;53.582;10.096;2022-08-21T05:43:40;15.55;;;4.60;;
73550;SDS011;61816;53.582;10.096;2022-08-21T05:46:09;13.00;;;4.70;;
73550;SDS011;61816;53.582;10.096;2022-08-21T05:48:35;9.60;;;4.40;;
73550;SDS011;61816;53.582;10.096;2022-08-21T05:51:05;10.18;;;4.20;;
73550;SDS011;61816;53.582;10.096;2022-08-21T05:53:33;11.00;;;4.10;;
73550;SDS011;61816;53.582;10.096;2022-08-21T05:55:58;12.38;;;4.18;;
73550;SDS011;61816;53.582;10.096;2022-08-21T05:58:24;13.75;;;4.30;;
73550;SDS011;61816;53.582;10.096;2022-08-21T06:00:50;12.65;;;3.92;;
73550;SDS011;61816;53.582;10.096;2022-08-21T06:03:21;17.85;;;4.45;;
73550;SDS011;61816;53.582;10.096;2022-08-21T06:05:49;13.18;;;3.92;;
73550;SDS011;61816;53.582;10.096;2022-08-21T06:08:16;15.27;;;5.28;;
73550;SDS011;61816;53.582;10.096;2022-08-21T06:10:42;13.15;;;3.92;;
73550;SDS011;61816;53.582;10.096;2022-08-21T06:13:09;10.70;;;4.75;;
73550;SDS011;61816;53.582;10.096;2022-08-21T06:15:34;14.18;;;4.35;;
73550;SDS011;61816;53.582;10.096;2022-08-21T06:18:00;13.18;;;4.20;;
73550;SDS011;61816;53.582;10.096;2022-08-21T06:20:25;12.57;;;3.78;;
73550;SDS011;61816;53.582;10.096;2022-08-21T06:22:52;15.07;;;3.58;;
73550;SDS011;61816;53.582;10.096;2022-08-21T06:25:17;14.40;;;4.53;;
73550;SDS011;61816;53.582;10.096;2022-08-21T06:27:43;8.65;;;3.95;;
73550;SDS011;61816;53.582;10.096;2022-08-21T06:30:09;14.68;;;3.90;;
73550;SDS011;61816;53.582;10.096;2022-08-21T06:32:35;11.82;;;4.22;;
73550;SDS011;61816;53.582;10.096;2022-08-21T06:35:01;9.98;;;3.50;;
73550;SDS011;61816;53.582;10.096;2022-08-21T06:37:27;13.95;;;3.80;;
73550;SDS011;61816;53.582;10.096;2022-08-21T06:39:53;5.88;;;3.15;;
73550;SDS011;61816;53.582;10.096;2022-08-21T06:42:18;9.88;;;3.60;;
73550;SDS011;61816;53.582;10.096;2022-08-21T06:44:44;14.05;;;3.45;;
73550;SDS011;61816;53.582;10.096;2022-08-21T06:47:10;10.57;;;3.20;;
73550;SDS011;61816;53.582;10.096;2022-08-21T06:49:36;13.50;;;3.35;;
73550;SDS011;61816;53.582;10.096;2022-08-21T06:52:02;15.00;;;3.88;;
73550;SDS011;61816;53.582;10.096;2022-08-21T06:54:28;10.88;;;3.40;;
73550;SDS011;61816;53.582;10.096;2022-08-21T06:56:54;9.85;;;3.60;;
73550;SDS011;61816;53.582;10.096;2022-08-21T06:59:20;13.02;;;3.60;;
73550;SDS011;61816;53.582;10.096;2022-08-21T07:01:46;12.38;;;3.10;;
73550;SDS011;61816;53.582;10.096;2022-08-21T07:04:11;12.82;;;3.00;;
73550;SDS011;61816;53.582;10.096;2022-08-21T07:06:37;9.68;;;2.92;;
73550;SDS011;61816;53.582;10.096;2022-08-21T07:09:03;10.52;;;2.67;;
73550;SDS011;61816;53.582;10.096;2022-08-21T07:11:29;21.95;;;2.67;;
73550;SDS011;61816;53.582;10.096;2022-08-21T07:13:54;13.38;;;2.90;;
73550;SDS011;61816;53.582;10.096;2022-08-21T07:16:21;6.38;;;2.72;;
73550;SDS011;61816;53.582;10.096;2022-08-21T07:18:47;11.93;;;3.05;;
73550;SDS011;61816;53.582;10.096;2022-08-21T07:21:14;13.13;;;3.00;;
73550;SDS011;61816;53.582;10.096;2022-08-21T07:23:42;5.80;;;2.13;;
73550;SDS011;61816;53.582;10.096;2022-08-21T07:26:10;9.15;;;2.90;;
73550;SDS011;61816;53.582;10.096;2022-08-21T07:28:37;14.60;;;3.05;;
73550;SDS011;61816;53.582;10.096;2022-08-21T07:31:02;9.20;;;2.83;;
73550;SDS011;61816;53.582;10.096;2022-08-21T07:33:29;7.60;;;2.15;;
73550;SDS011;61816;53.582;10.096;2022-08-21T07:35:56;8.07;;;2.50;;
73550;SDS011;61816;53.582;10.096;2022-08-21T07:38:23;10.45;;;2.65;;
73550;SDS011;61816;53.582;10.096;2022-08-21T07:40:49;7.97;;;2.55;;
73550;SDS011;61816;53.582;10.096;2022-08-21T07:43:17;8.70;;;2.50;;
73550;SDS011;61816;53.582;10.096;2022-08-21T07:45:43;8.15;;;2.03;;
73550;SDS011;61816;53.582;10.096;2022-08-21T07:48:10;10.25;;;2.10;;
73550;SDS011;61816;53.582;10.096;2022-08-21T07:50:36;17.02;;;2.80;;
73550;SDS011;61816;53.582;10.096;2022-08-21T07:53:02;8.82;;;2.60;;
73550;SDS011;61816;53.582;10.096;2022-08-21T07:55:29;7.38;;;2.05;;
73550;SDS011;61816;53.582;10.096;2022-08-21T07:57:54;8.30;;;2.47;;
73550;SDS011;61816;53.582;10.096;2022-08-21T08:00:21;12.35;;;2.55;;
73550;SDS011;61816;53.582;10.096;2022-08-21T08:02:53;9.68;;;2.78;;
73550;SDS011;61816;53.582;10.096;2022-08-21T08:05:20;11.23;;;2.78;;
73550;SDS011;61816;53.582;10.096;2022-08-21T08:07:48;7.95;;;2.38;;
73550;SDS011;61816;53.582;10.096;2022-08-21T08:10:16;8.10;;;2.70;;
73550;SDS011;61816;53.582;10.096;2022-08-21T08:12:42;8.57;;;2.20;;
73550;SDS011;61816;53.582;10.096;2022-08-21T08:15:11;13.85;;;3.08;;
73550;SDS011;61816;53.582;10.096;2022-08-21T08:17:40;25.10;;;3.03;;
73550;SDS011;61816;53.582;10.096;2022-08-21T08:20:06;10.18;;;2.63;;
73550;SDS011;61816;53.582;10.096;2022-08-21T08:22:33;7.05;;;2.47;;
73550;SDS011;61816;53.582;10.096;2022-08-21T08:25:01;7.32;;;2.25;;
73550;SDS011;61816;53.582;10.096;2022-08-21T08:27:26;8.05;;;2.40;;
73550;SDS011;61816;53.582;10.096;2022-08-21T08:29:53;8.57;;;2.72;;
73550;SDS011;61816;53.582;10.096;2022-08-21T08:32:19;10.00;;;2.78;;
73550;SDS011;61816;53.582;10.096;2022-08-21T08:34:52;6.88;;;2.33;;
73550;SDS011;61816;53.582;10.096;2022-08-21T08:37:18;9.10;;;2.75;;
73550;SDS011;61816;53.582;10.096;2022-08-21T08:39:45;10.90;;;2.53;;
73550;SDS011;61816;53.582;10.096;2022-08-21T08:42:12;16.40;;;2.75;;
73550;SDS011;61816;53.582;10.096;2022-08-21T08:44:58;10.23;;;2.90;;
73550;SDS011;61816;53.582;10.096;2022-08-21T08:47:30;5.03;;;2.13;;
73550;SDS011;61816;53.582;10.096;2022-08-21T08:50:09;8.20;;;2.50;;
73550;SDS011;61816;53.582;10.096;2022-08-21T08:52:43;11.05;;;2.40;;
73550;SDS011;61816;53.582;10.096;2022-08-21T08:55:19;7.97;;;2.67;;
73550;SDS011;61816;53.582;10.096;2022-08-21T08:57:51;10.88;;;3.28;;
73550;SDS011;61816;53.582;10.096;2022-08-21T09:00:20;10.52;;;2.60;;
73550;SDS011;61816;53.582;10.096;2022-08-21T09:02:48;10.73;;;2.97;;
73550;SDS011;61816;53.582;10.096;2022-08-21T09:05:21;10.77;;;3.47;;
73550;SDS011;61816;53.582;10.096;2022-08-21T09:08:29;18.98;;;3.45;;
73550;SDS011;61816;53.582;10.096;2022-08-21T09:11:12;10.50;;;2.80;;
73550;SDS011;61816;53.582;10.096;2022-08-21T09:14:05;10.50;;;2.72;;
73550;SDS011;61816;53.582;10.096;2022-08-21T09:19:19;10.90;;;3.03;;
73550;SDS011;61816;53.582;10.096;2022-08-21T09:21:53;15.25;;;3.40;;
73550;SDS011;61816;53.582;10.096;2022-08-21T09:24:32;12.05;;;3.38;;
73550;SDS011;61816;53.582;10.096;2022-08-21T09:27:12;14.85;;;3.63;;
73550;SDS011;61816;53.582;10.096;2022-08-21T09:29:40;12.52;;;2.80;;
73550;SDS011;61816;53.582;10.096;2022-08-21T09:32:13;15.07;;;3.17;;
73550;SDS011;61816;53.582;10.096;2022-08-21T09:34:56;19.42;;;3.70;;
73550;SDS011;61816;53.582;10.096;2022-08-21T09:37:22;10.48;;;3.47;;
73550;SDS011;61816;53.582;10.096;2022-08-21T09:39:49;11.32;;;3.35;;
73550;SDS011;61816;53.582;10.096;2022-08-21T09:42:24;11.20;;;3.60;;
73550;SDS011;61816;53.582;10.096;2022-08-21T09:47:51;12.40;;;3.13;;
73550;SDS011;61816;53.582;10.096;2022-08-21T09:50:20;13.00;;;3.70;;
73550;SDS011;61816;53.582;10.096;2022-08-21T09:52:51;16.70;;;3.90;;
73550;SDS011;61816;53.582;10.096;2022-08-21T09:58:31;17.35;;;3.10;;
73550;SDS011;61816;53.582;10.096;2022-08-21T10:01:04;25.25;;;4.18;;
73550;SDS011;61816;53.582;10.096;2022-08-21T10:03:34;19.23;;;4.13;;
73550;SDS011;61816;53.582;10.096;2022-08-21T10:06:03;16.23;;;4.13;;
73550;SDS011;61816;53.582;10.096;2022-08-21T10:08:33;16.00;;;3.42;;
73550;SDS011;61816;53.582;10.096;2022-08-21T10:11:08;18.70;;;3.95;;
73550;SDS011;61816;53.582;10.096;2022-08-21T10:24:46;12.40;;;3.50;;
73550;SDS011;61816;53.582;10.096;2022-08-21T10:30:35;15.85;;;4.05;;
73550;SDS011;61816;53.582;10.096;2022-08-21T10:33:11;23.70;;;3.17;;
73550;SDS011;61816;53.582;10.096;2022-08-21T10:47:06;16.13;;;3.90;;
73550;SDS011;61816;53.582;10.096;2022-08-21T10:49:40;15.93;;;3.67;;
73550;SDS011;61816;53.582;10.096;2022-08-21T10:55:17;14.27;;;3.85;;
73550;SDS011;61816;53.582;10.096;2022-08-21T11:00:32;13.15;;;3.10;;
73550;SDS011;61816;53.582;10.096;2022-08-21T11:03:08;20.75;;;4.05;;
73550;SDS011;61816;53.582;10.096;2022-08-21T11:08:24;9.02;;;2.80;;
73550;SDS011;61816;53.582;10.096;2022-08-21T11:11:13;12.63;;;2.92;;
73550;SDS011;61816;53.582;10.096;2022-08-21T11:16:44;9.98;;;3.08;;
73550;SDS011;61816;53.582;10.096;2022-08-21T11:19:20;9.90;;;2.72;;
73550;SDS011;61816;53.582;10.096;2022-08-21T11:22:06;10.18;;;3.00;;
73550;SDS011;61816;53.582;10.096;2022-08-21T11:27:46;9.93;;;2.78;;
73550;SDS011;61816;53.582;10.096;2022-08-21T11:30:47;12.95;;;3.47;;
73550;SDS011;61816;53.582;10.096;2022-08-21T11:33:58;11.07;;;3.03;;
73550;SDS011;61816;53.582;10.096;2022-08-21T11:50:56;4.82;;;2.20;;
73550;SDS011;61816;53.582;10.096;2022-08-21T12:00:29;8.07;;;2.22;;
73550;SDS011;61816;53.582;10.096;2022-08-21T12:03:05;10.20;;;2.10;;
73550;SDS011;61816;53.582;10.096;2022-08-21T12:08:56;12.38;;;2.58;;
73550;SDS011;61816;53.582;10.096;2022-08-21T12:11:25;8.68;;;2.70;;
73550;SDS011;61816;53.582;10.096;2022-08-21T12:19:11;8.82;;;3.03;;
73550;SDS011;61816;53.582;10.096;2022-08-21T12:21:58;8.30;;;2.40;;
73550;SDS011;61816;53.582;10.096;2022-08-21T12:24:32;8.73;;;2.42;;
73550;SDS011;61816;53.582;10.096;2022-08-21T12:29:50;8.63;;;2.25;;
73550;SDS011;61816;53.582;10.096;2022-08-21T12:32:29;4.00;;;1.88;;
73550;SDS011;61816;53.582;10.096;2022-08-21T12:37:30;8.27;;;2.55;;
73550;SDS011;61816;53.582;10.096;2022-08-21T12:39:57;6.57;;;2.47;;
73550;SDS011;61816;53.582;10.096;2022-08-21T12:45:22;3.80;;;1.90;;
73550;SDS011;61816;53.582;10.096;2022-08-21T12:47:56;5.25;;;2.05;;
73550;SDS011;61816;53.582;10.096;2022-08-21T12:53:49;8.98;;;2.42;;
73550;SDS011;61816;53.582;10.096;2022-08-21T12:56:16;5.05;;;1.95;;
73550;SDS011;61816;53.582;10.096;2022-08-21T12:58:55;8.00;;;2.30;;
73550;SDS011;61816;53.582;10.096;2022-08-21T13:03:55;10.35;;;1.90;;
73550;SDS011;61816;53.582;10.096;2022-08-21T13:06:24;12.45;;;1.90;;
73550;SDS011;61816;53.582;10.096;2022-08-21T13:08:56;6.68;;;2.20;;
73550;SDS011;61816;53.582;10.096;2022-08-21T13:11:28;20.80;;;2.28;;
73550;SDS011;61816;53.582;10.096;2022-08-21T13:13:54;5.68;;;1.98;;
73550;SDS011;61816;53.582;10.096;2022-08-21T13:16:24;6.00;;;2.03;;
73550;SDS011;61816;53.582;10.096;2022-08-21T13:19:11;6.95;;;2.50;;
73550;SDS011;61816;53.582;10.096;2022-08-21T13:21:42;7.03;;;1.73;;
73550;SDS011;61816;53.582;10.096;2022-08-21T13:24:17;16.30;;;2.00;;
73550;SDS011;61816;53.582;10.096;2022-08-21T13:26:44;4.18;;;1.80;;
73550;SDS011;61816;53.582;10.096;2022-08-21T13:29:13;7.47;;;2.67;;
73550;SDS011;61816;53.582;10.096;2022-08-21T13:31:45;4.97;;;2.10;;
73550;SDS011;61816;53.582;10.096;2022-08-21T13:34:22;5.10;;;1.73;;
73550;SDS011;61816;53.582;10.096;2022-08-21T13:37:00;4.47;;;1.90;;
73550;SDS011;61816;53.582;10.096;2022-08-21T13:39:29;4.82;;;1.60;;
73550;SDS011;61816;53.582;10.096;2022-08-21T13:41:55;15.20;;;1.92;;
73550;SDS011;61816;53.582;10.096;2022-08-21T13:44:36;4.78;;;1.98;;
73550;SDS011;61816;53.582;10.096;2022-08-21T13:47:07;4.45;;;1.60;;
73550;SDS011;61816;53.582;10.096;2022-08-21T13:49:36;3.83;;;1.60;;
73550;SDS011;61816;53.582;10.096;2022-08-21T13:52:05;8.07;;;2.10;;
73550;SDS011;61816;53.582;10.096;2022-08-21T13:54:40;3.95;;;1.70;;
73550;SDS011;61816;53.582;10.096;2022-08-21T13:57:28;4.35;;;2.03;;
73550;SDS011;61816;53.582;10.096;2022-08-21T14:02:41;6.88;;;1.92;;
73550;SDS011;61816;53.582;10.096;2022-08-21T14:05:14;4.22;;;1.60;;
73550;SDS011;61816;53.582;10.096;2022-08-21T14:07:42;5.75;;;1.80;;
73550;SDS011;61816;53.582;10.096;2022-08-21T14:10:13;12.18;;;1.90;;
73550;SDS011;61816;53.582;10.096;2022-08-21T14:12:45;3.55;;;1.52;;
73550;SDS011;61816;53.582;10.096;2022-08-21T14:15:12;6.00;;;2.00;;
73550;SDS011;61816;53.582;10.096;2022-08-21T14:17:40;6.00;;;1.98;;
73550;SDS011;61816;53.582;10.096;2022-08-21T14:20:08;8.35;;;1.80;;
73550;SDS011;61816;53.582;10.096;2022-08-21T14:22:41;6.75;;;2.22;;
73550;SDS011;61816;53.582;10.096;2022-08-21T14:32:54;5.88;;;1.98;;
73550;SDS011;61816;53.582;10.096;2022-08-21T14:35:20;4.35;;;2.05;;
73550;SDS011;61816;53.582;10.096;2022-08-21T14:37:47;4.82;;;2.25;;
73550;SDS011;61816;53.582;10.096;2022-08-21T14:40:15;5.75;;;2.22;;
73550;SDS011;61816;53.582;10.096;2022-08-21T14:42:42;6.40;;;1.80;;
73550;SDS011;61816;53.582;10.096;2022-08-21T14:45:19;4.22;;;1.63;;
73550;SDS011;61816;53.582;10.096;2022-08-21T14:47:52;10.25;;;1.88;;
73550;SDS011;61816;53.582;10.096;2022-08-21T14:50:21;5.32;;;1.73;;
73550;SDS011;61816;53.582;10.096;2022-08-21T14:52:47;4.30;;;1.90;;
73550;SDS011;61816;53.582;10.096;2022-08-21T14:55:13;7.10;;;2.22;;
73550;SDS011;61816;53.582;10.096;2022-08-21T14:57:41;3.00;;;1.35;;
73550;SDS011;61816;53.582;10.096;2022-08-21T15:00:09;6.43;;;1.88;;
73550;SDS011;61816;53.582;10.096;2022-08-21T15:02:36;7.53;;;2.00;;
73550;SDS011;61816;53.582;10.096;2022-08-21T15:05:02;5.28;;;1.88;;
73550;SDS011;61816;53.582;10.096;2022-08-21T15:07:28;5.47;;;1.50;;
73550;SDS011;61816;53.582;10.096;2022-08-21T15:09:53;4.18;;;1.77;;
73550;SDS011;61816;53.582;10.096;2022-08-21T15:12:19;10.90;;;2.05;;
73550;SDS011;61816;53.582;10.096;2022-08-21T15:14:44;9.98;;;2.35;;
73550;SDS011;61816;53.582;10.096;2022-08-21T15:17:10;6.20;;;1.95;;
73550;SDS011;61816;53.582;10.096;2022-08-21T15:19:37;4.82;;;1.65;;
73550;SDS011;61816;53.582;10.096;2022-08-21T15:22:03;4.10;;;1.60;;
73550;SDS011;61816;53.582;10.096;2022-08-21T15:24:29;3.90;;;1.67;;
73550;SDS011;61816;53.582;10.096;2022-08-21T15:26:54;6.90;;;2.30;;
73550;SDS011;61816;53.582;10.096;2022-08-21T15:29:21;4.75;;;1.55;;
73550;SDS011;61816;53.582;10.096;2022-08-21T15:31:54;5.28;;;2.08;;
73550;SDS011;61816;53.582;10.096;2022-08-21T15:34:23;6.82;;;1.67;;
73550;SDS011;61816;53.582;10.096;2022-08-21T15:36:50;2.90;;;1.42;;
73550;SDS011;61816;53.582;10.096;2022-08-21T15:39:16;5.13;;;2.08;;
73550;SDS011;61816;53.582;10.096;2022-08-21T15:41:42;6.82;;;2.67;;
73550;SDS011;61816;53.582;10.096;2022-08-21T15:44:09;4.30;;;1.90;;
73550;SDS011;61816;53.582;10.096;2022-08-21T15:46:36;6.03;;;2.30;;
73550;SDS011;61816;53.582;10.096;2022-08-21T15:49:03;7.82;;;1.80;;
73550;SDS011;61816;53.582;10.096;2022-08-21T15:51:29;9.05;;;2.05;;
73550;SDS011;61816;53.582;10.096;2022-08-21T15:53:55;5.70;;;1.60;;
73550;SDS011;61816;53.582;10.096;2022-08-21T15:56:22;7.25;;;2.45;;
73550;SDS011;61816;53.582;10.096;2022-08-21T15:58:50;6.18;;;2.17;;
73550;SDS011;61816;53.582;10.096;2022-08-21T16:01:20;5.53;;;2.22;;
73550;SDS011;61816;53.582;10.096;2022-08-21T16:03:47;6.60;;;2.08;;
73550;SDS011;61816;53.582;10.096;2022-08-21T16:06:15;6.78;;;1.50;;
73550;SDS011;61816;53.582;10.096;2022-08-21T16:08:41;7.20;;;1.48;;
73550;SDS011;61816;53.582;10.096;2022-08-21T16:11:06;6.78;;;2.03;;
73550;SDS011;61816;53.582;10.096;2022-08-21T16:13:35;9.15;;;2.42;;
73550;SDS011;61816;53.582;10.096;2022-08-21T16:16:03;7.07;;;1.70;;
73550;SDS011;61816;53.582;10.096;2022-08-21T16:18:29;7.95;;;2.33;;
73550;SDS011;61816;53.582;10.096;2022-08-21T16:20:55;6.90;;;1.80;;